createdAt,value
2022-09-16T00:00:48.820Z,1.90
2022-09-16T00:03:17.123Z,1.77
2022-09-16T00:05:46.431Z,1.60
2022-09-16T00:08:14.591Z,1.77
2022-09-16T00:10:43.634Z,1.90
2022-09-16T00:13:12.294Z,1.85
2022-09-16T00:15:46.854Z,1.43
2022-09-16T00:18:32.237Z,1.38
2022-09-16T00:20:59.235Z,1.75
2022-09-16T00:23:26.175Z,1.48
2022-09-16T00:25:54.221Z,1.65
2022-09-16T00:28:22.605Z,1.65
2022-09-16T00:31:07.967Z,1.83
2022-09-16T00:33:34.974Z,2.00
2022-09-16T00:36:10.621Z,1.70
2022-09-16T00:38:55.987Z,1.60
2022-09-16T00:41:30.956Z,1.80
2022-09-16T00:44:01.852Z,1.70
2022-09-16T00:46:45.632Z,2.03
2022-09-16T00:49:20.560Z,1.63
2022-09-16T00:51:50.733Z,1.80
2022-09-16T00:54:18.767Z,1.80
2022-09-16T00:56:49.534Z,1.77
2022-09-16T00:59:24.525Z,1.77
2022-09-16T01:01:53.105Z,2.00
2022-09-16T01:05:06.754Z,2.10
2022-09-16T01:07:54.207Z,1.80
2022-09-16T01:10:42.290Z,2.15
2022-09-16T01:15:48.572Z,1.83
2022-09-16T01:18:40.181Z,1.63
2022-09-16T01:21:33.800Z,2.25
2022-09-16T01:24:20.739Z,2.45
2022-09-16T01:26:59.774Z,1.95
2022-09-16T01:29:44.597Z,2.42
2022-09-16T01:32:40.133Z,2.50
2022-09-16T01:35:12.906Z,1.83
2022-09-16T01:38:04.297Z,2.40
2022-09-16T01:40:48.962Z,1.92
2022-09-16T01:43:36.804Z,2.25
2022-09-16T01:46:15.964Z,2.10
2022-09-16T01:48:54.721Z,2.20
2022-09-16T01:52:04.894Z,2.10
2022-09-16T01:54:46.851Z,2.20
2022-09-16T01:57:41.134Z,1.67
2022-09-16T02:00:11.536Z,2.03
2022-09-16T02:03:11.777Z,2.20
2022-09-16T02:05:51.201Z,2.33
2022-09-16T02:08:26.026Z,2.22
2022-09-16T02:11:16.578Z,2.70
2022-09-16T02:14:06.261Z,1.95
2022-09-16T02:19:34.661Z,2.35
2022-09-16T02:22:07.639Z,2.15
2022-09-16T02:24:36.053Z,1.88
2022-09-16T02:27:06.658Z,1.98
2022-09-16T02:29:41.573Z,2.50
2022-09-16T02:32:15.530Z,2.85
2022-09-16T02:35:02.657Z,1.98
2022-09-16T02:37:52.716Z,2.10
2022-09-16T02:40:35.601Z,2.65
2022-09-16T02:43:20.994Z,2.70
2022-09-16T02:46:10.510Z,2.30
2022-09-16T02:51:57.546Z,2.55
2022-09-16T02:54:55.369Z,2.60
2022-09-16T02:57:22.665Z,2.50
2022-09-16T02:59:50.374Z,2.35
2022-09-16T03:02:17.366Z,2.35
2022-09-16T03:04:44.748Z,2.78
2022-09-16T03:07:13.741Z,3.17
2022-09-16T03:09:43.711Z,2.75
2022-09-16T03:12:25.737Z,2.53
2022-09-16T03:15:39.229Z,2.78
2022-09-16T03:18:27.336Z,2.85
2022-09-16T03:21:25.412Z,3.28
2022-09-16T03:24:31.185Z,2.90
2022-09-16T03:27:07.959Z,3.15
2022-09-16T03:29:45.215Z,2.38
2022-09-16T03:32:35.858Z,2.60
2022-09-16T03:35:21.777Z,3.00
2022-09-16T03:38:08.589Z,2.92
2022-09-16T03:40:36.133Z,2.55
2022-09-16T03:43:15.077Z,2.42
2022-09-16T03:45:42.826Z,3.05
2022-09-16T03:48:28.254Z,2.97
2022-09-16T03:50:55.318Z,2.63
2022-09-16T03:53:22.221Z,2.50
2022-09-16T03:56:07.705Z,2.95
2022-09-16T03:58:34.963Z,2.70
2022-09-16T04:01:01.897Z,2.72
2022-09-16T04:03:47.559Z,2.97
2022-09-16T04:06:14.901Z,2.35
2022-09-16T04:08:44.218Z,2.33
2022-09-16T04:11:31.989Z,3.15
2022-09-16T04:13:59.277Z,2.28
2022-09-16T04:16:45.487Z,2.97
2022-09-16T04:19:13.710Z,2.63
2022-09-16T04:21:42.137Z,2.33
2022-09-16T04:24:27.572Z,2.50
2022-09-16T04:26:54.542Z,2.42
2022-09-16T04:29:21.483Z,2.60
2022-09-16T04:31:48.871Z,2.28
2022-09-16T04:34:34.354Z,2.40
2022-09-16T04:37:01.702Z,2.88
2022-09-16T04:39:28.681Z,2.30
2022-09-16T04:41:55.610Z,2.40
2022-09-16T04:44:22.543Z,3.40
2022-09-16T04:46:49.495Z,2.10
2022-09-16T04:49:16.446Z,2.30
2022-09-16T04:51:43.554Z,2.30
2022-09-16T04:54:28.889Z,2.00
2022-09-16T04:56:55.997Z,2.50
2022-09-16T04:59:22.932Z,2.50
2022-09-16T05:01:49.911Z,2.00
2022-09-16T05:04:16.957Z,2.47
2022-09-16T05:06:44.502Z,2.17
2022-09-16T05:09:12.282Z,2.67
2022-09-16T05:11:40.285Z,2.20
2022-09-16T05:14:10.537Z,2.55
2022-09-16T05:16:52.341Z,3.05
2022-09-16T05:19:19.328Z,2.28
2022-09-16T05:21:46.389Z,2.33
2022-09-16T05:24:34.917Z,2.22
2022-09-16T05:27:02.442Z,2.33
2022-09-16T05:29:29.328Z,2.47
2022-09-16T05:31:56.493Z,2.53
2022-09-16T05:34:28.368Z,2.33
2022-09-16T05:36:56.510Z,3.10
2022-09-16T05:39:41.752Z,1.77
2022-09-16T05:42:09.461Z,2.22
2022-09-16T05:44:54.677Z,2.28
2022-09-16T05:47:21.768Z,2.17
2022-09-16T05:49:48.679Z,2.00
2022-09-16T05:52:15.605Z,2.33
2022-09-16T05:55:01.136Z,1.70
2022-09-16T05:57:28.107Z,1.65
2022-09-16T05:59:55.026Z,2.10
2022-09-16T06:02:22.052Z,1.60
2022-09-16T06:04:49.289Z,1.90
2022-09-16T06:07:17.180Z,2.58
2022-09-16T06:09:44.245Z,2.22
2022-09-16T06:12:11.142Z,1.80
2022-09-16T06:14:47.110Z,2.10
2022-09-16T06:17:19.818Z,1.92
2022-09-16T06:19:46.849Z,2.03
2022-09-16T06:22:13.737Z,1.58
2022-09-16T06:24:40.653Z,1.60
2022-09-16T06:27:08.511Z,1.85
2022-09-16T06:29:47.589Z,1.92
2022-09-16T06:32:14.730Z,1.90
2022-09-16T06:34:41.720Z,2.30
2022-09-16T06:37:12.530Z,1.90
2022-09-16T06:39:39.505Z,1.52
2022-09-16T06:42:15.094Z,1.73
2022-09-16T06:44:42.032Z,1.83
2022-09-16T06:47:08.972Z,2.03
2022-09-16T06:49:35.919Z,2.00
2022-09-16T06:52:02.963Z,1.67
2022-09-16T06:54:29.942Z,2.22
2022-09-16T06:56:57.498Z,2.10
2022-09-16T06:59:24.421Z,1.95
2022-09-16T07:01:52.153Z,1.77
2022-09-16T07:04:19.113Z,1.88
2022-09-16T07:09:33.631Z,1.60
2022-09-16T07:12:01.317Z,2.00
2022-09-16T07:14:28.827Z,2.00
2022-09-16T07:16:58.960Z,2.55
2022-09-16T07:19:26.105Z,2.08
2022-09-16T07:21:53.231Z,1.83
2022-09-16T07:24:20.263Z,1.90
2022-09-16T07:26:47.248Z,2.03
2022-09-16T07:29:17.624Z,1.98
2022-09-16T07:31:44.503Z,1.88
2022-09-16T07:34:12.684Z,1.80
2022-09-16T07:36:43.996Z,1.85
2022-09-16T07:39:13.554Z,1.70
2022-09-16T07:41:45.381Z,1.70
2022-09-16T07:44:13.944Z,1.70
2022-09-16T07:46:41.173Z,1.80
2022-09-16T07:49:10.840Z,1.58
2022-09-16T07:51:37.804Z,1.45
2022-09-16T07:54:08.683Z,1.58
2022-09-16T07:56:38.693Z,2.03
2022-09-16T07:59:12.980Z,1.60
2022-09-16T08:01:43.651Z,1.80
2022-09-16T08:04:10.805Z,1.35
2022-09-16T08:06:39.593Z,1.70
2022-09-16T08:09:15.507Z,1.33
2022-09-16T08:11:53.352Z,1.80
2022-09-16T08:14:20.274Z,1.50
2022-09-16T08:16:51.098Z,1.80
2022-09-16T08:19:19.241Z,1.10
2022-09-16T08:21:46.358Z,1.25
2022-09-16T08:24:13.293Z,1.40
2022-09-16T08:26:40.367Z,1.30
2022-09-16T08:29:09.691Z,1.40
2022-09-16T08:31:38.377Z,1.48
2022-09-16T08:34:05.611Z,1.45
2022-09-16T08:36:35.695Z,1.45
2022-09-16T08:39:02.831Z,1.40
2022-09-16T08:42:01.962Z,1.27
2022-09-16T08:44:57.589Z,1.20
2022-09-16T08:47:54.337Z,1.40
2022-09-16T08:50:43.207Z,1.15
2022-09-16T08:53:20.209Z,1.42
2022-09-16T08:55:50.131Z,1.23
2022-09-16T08:58:24.549Z,1.30
2022-09-16T09:01:02.470Z,1.58
2022-09-16T09:03:41.398Z,1.50
2022-09-16T09:06:45.807Z,1.13
2022-09-16T09:09:42.461Z,1.30
2022-09-16T09:12:18.797Z,1.75
2022-09-16T09:14:55.926Z,1.75
2022-09-16T09:17:51.263Z,1.30
2022-09-16T09:20:55.732Z,1.50
2022-09-16T09:23:53.861Z,1.25
2022-09-16T09:26:48.910Z,1.30
2022-09-16T09:29:36.718Z,1.75
2022-09-16T09:32:19.642Z,1.50
2022-09-16T09:35:47.270Z,1.40
2022-09-16T09:41:33.983Z,1.33
2022-09-16T09:44:45.994Z,1.55
2022-09-16T09:47:57.959Z,1.20
2022-09-16T09:50:41.556Z,1.10
2022-09-16T09:53:11.173Z,1.30
2022-09-16T09:56:13.050Z,2.03
2022-09-16T09:58:48.482Z,1.48
2022-09-16T10:01:16.236Z,1.50
2022-09-16T10:03:45.191Z,1.48
2022-09-16T10:06:12.677Z,1.30
2022-09-16T10:08:49.681Z,1.35
2022-09-16T10:11:22.728Z,1.42
2022-09-16T10:13:52.719Z,1.17
2022-09-16T10:16:24.840Z,1.00
2022-09-16T10:19:19.901Z,1.00
2022-09-16T10:21:50.947Z,0.85
2022-09-16T10:24:35.557Z,1.20
2022-09-16T10:27:22.962Z,2.72
2022-09-16T10:30:04.349Z,1.23
2022-09-16T10:32:32.021Z,1.20
2022-09-16T10:34:58.930Z,3.13
2022-09-16T10:37:54.110Z,3.00
2022-09-16T10:40:23.355Z,1.65
2022-09-16T10:42:53.400Z,1.23
2022-09-16T10:45:29.547Z,1.83
2022-09-16T10:48:02.188Z,1.35
2022-09-16T10:50:31.977Z,1.45
2022-09-16T10:52:59.023Z,1.30
2022-09-16T10:55:38.502Z,1.00
2022-09-16T10:58:24.069Z,1.58
2022-09-16T11:01:18.240Z,1.23
2022-09-16T11:04:05.309Z,1.30
2022-09-16T11:06:46.433Z,1.75
2022-09-16T11:09:56.333Z,1.23
2022-09-16T11:12:54.877Z,1.00
2022-09-16T11:15:59.310Z,1.15
2022-09-16T11:18:44.250Z,1.20
2022-09-16T11:21:49.414Z,1.15
2022-09-16T11:24:47.338Z,0.98
2022-09-16T11:27:21.317Z,0.90
2022-09-16T11:30:00.877Z,1.05
2022-09-16T11:32:56.075Z,1.02
2022-09-16T11:36:10.001Z,0.80
2022-09-16T11:38:49.310Z,1.00
2022-09-16T11:41:21.494Z,1.15
2022-09-16T11:44:20.490Z,0.93
2022-09-16T11:47:08.712Z,0.98
2022-09-16T11:50:03.969Z,0.80
2022-09-16T11:53:08.247Z,0.80
2022-09-16T11:55:55.242Z,0.88
2022-09-16T11:58:48.952Z,0.90
2022-09-16T12:01:27.901Z,1.13
2022-09-16T12:04:01.210Z,1.10
2022-09-16T12:07:01.139Z,1.10
2022-09-16T12:09:37.877Z,0.95
2022-09-16T12:12:16.361Z,1.10
2022-09-16T12:15:07.122Z,0.82
2022-09-16T12:17:39.354Z,1.10
2022-09-16T12:20:26.329Z,0.82
2022-09-16T12:23:03.539Z,0.88
2022-09-16T12:26:05.658Z,0.93
2022-09-16T12:28:39.084Z,0.98
2022-09-16T12:31:31.040Z,1.02
2022-09-16T12:34:22.710Z,1.20
2022-09-16T12:37:12.529Z,1.17
2022-09-16T12:39:39.450Z,0.90
2022-09-16T12:42:56.129Z,1.00
2022-09-16T12:45:41.610Z,1.00
2022-09-16T12:48:26.960Z,0.77
2022-09-16T12:51:17.726Z,1.00
2022-09-16T12:53:53.637Z,0.98
2022-09-16T12:56:44.403Z,1.10
2022-09-16T12:59:47.637Z,1.23
2022-09-16T13:02:20.586Z,1.27
2022-09-16T13:04:54.721Z,1.40
2022-09-16T13:07:40.526Z,1.23
2022-09-16T13:10:20.858Z,1.40
2022-09-16T13:13:07.982Z,1.23
2022-09-16T13:15:38.083Z,1.63
2022-09-16T13:18:13.854Z,2.05
2022-09-16T13:21:05.496Z,1.50
2022-09-16T13:23:40.105Z,1.48
2022-09-16T13:26:09.063Z,1.38
2022-09-16T13:28:38.331Z,1.15
2022-09-16T13:31:11.144Z,1.15
2022-09-16T13:33:48.026Z,0.80
2022-09-16T13:36:19.516Z,0.85
2022-09-16T13:38:52.082Z,0.77
2022-09-16T13:41:39.975Z,0.95
2022-09-16T13:44:38.365Z,0.82
2022-09-16T13:47:11.034Z,0.80
2022-09-16T13:50:02.160Z,0.70
2022-09-16T13:52:31.748Z,1.13
2022-09-16T13:57:41.174Z,0.95
2022-09-16T14:00:23.642Z,0.75
2022-09-16T14:02:50.590Z,1.40
2022-09-16T14:05:17.475Z,1.02
2022-09-16T14:08:11.999Z,1.10
2022-09-16T14:11:00.756Z,0.95
2022-09-16T14:13:40.993Z,0.80
2022-09-16T14:16:24.006Z,0.80
2022-09-16T14:19:23.025Z,0.63
2022-09-16T14:22:16.882Z,0.63
2022-09-16T14:24:45.785Z,0.82
2022-09-16T14:27:29.130Z,0.95
2022-09-16T14:29:57.303Z,0.75
2022-09-16T14:32:26.790Z,1.40
2022-09-16T14:34:56.574Z,0.90
2022-09-16T14:37:26.977Z,0.90
2022-09-16T14:39:56.827Z,0.73
2022-09-16T14:42:23.972Z,0.90
2022-09-16T14:44:55.417Z,0.80
2022-09-16T14:47:50.677Z,0.95
2022-09-16T14:50:23.373Z,1.77
2022-09-16T14:53:01.532Z,1.10
2022-09-16T14:55:31.245Z,0.85
2022-09-16T14:57:59.808Z,1.20
2022-09-16T15:00:47.460Z,1.13
2022-09-16T15:03:22.553Z,1.00
2022-09-16T15:05:50.228Z,1.30
2022-09-16T15:08:23.685Z,0.80
2022-09-16T15:10:55.500Z,1.05
2022-09-16T15:13:37.683Z,0.93
2022-09-16T15:16:07.200Z,0.90
2022-09-16T15:21:07.658Z,1.40
2022-09-16T15:23:37.227Z,1.02
2022-09-16T15:28:36.552Z,1.27
2022-09-16T15:31:03.841Z,0.77
2022-09-16T15:33:40.866Z,0.70
2022-09-16T15:36:41.106Z,0.88
2022-09-16T15:39:26.701Z,1.05
2022-09-16T15:42:25.972Z,1.02
2022-09-16T15:44:54.290Z,1.30
2022-09-16T15:47:29.159Z,1.10
2022-09-16T15:50:02.884Z,0.90
2022-09-16T15:52:33.921Z,1.15
2022-09-16T15:55:04.891Z,0.90
2022-09-16T15:57:38.422Z,1.67
2022-09-16T16:00:16.107Z,1.40
2022-09-16T16:02:51.702Z,1.13
2022-09-16T16:05:23.460Z,0.80
2022-09-16T16:07:57.373Z,1.17
2022-09-16T16:10:30.909Z,0.93
2022-09-16T16:13:00.030Z,0.90
2022-09-16T16:15:31.463Z,0.90
2022-09-16T16:18:01.715Z,0.82
2022-09-16T16:20:29.037Z,0.73
2022-09-16T16:22:56.163Z,1.17
2022-09-16T16:25:23.192Z,1.10
2022-09-16T16:27:50.124Z,0.80
2022-09-16T16:30:17.080Z,1.08
2022-09-16T16:32:44.607Z,1.48
2022-09-16T16:35:11.993Z,0.70
2022-09-16T16:37:47.498Z,0.95
2022-09-16T16:40:15.838Z,0.70
2022-09-16T16:42:44.218Z,1.55
2022-09-16T16:45:13.194Z,1.02
2022-09-16T16:47:40.218Z,1.25
2022-09-16T16:50:25.655Z,1.05
2022-09-16T16:52:53.186Z,1.10
2022-09-16T16:55:38.723Z,0.93
2022-09-16T16:58:05.870Z,1.30
2022-09-16T17:00:41.442Z,1.40
2022-09-16T17:05:37.912Z,1.08
2022-09-16T17:08:05.006Z,1.23
2022-09-16T17:10:32.073Z,0.95
2022-09-16T17:13:17.641Z,1.08
2022-09-16T17:15:44.843Z,1.02
2022-09-16T17:18:11.836Z,1.00
2022-09-16T17:21:06.136Z,1.08
2022-09-16T17:23:34.167Z,0.90
2022-09-16T17:26:02.129Z,1.40
2022-09-16T17:28:29.660Z,1.10
2022-09-16T17:30:57.071Z,1.13
2022-09-16T17:33:24.201Z,1.35
2022-09-16T17:36:01.943Z,1.13
2022-09-16T17:38:29.254Z,1.05
2022-09-16T17:41:09.411Z,1.25
2022-09-16T17:43:38.117Z,1.45
2022-09-16T17:46:07.686Z,1.10
2022-09-16T17:51:09.474Z,1.60
2022-09-16T17:53:37.669Z,1.48
2022-09-16T17:56:10.526Z,1.27
2022-09-16T17:58:39.054Z,1.33
2022-09-16T18:01:26.057Z,1.08
2022-09-16T18:03:55.680Z,1.60
2022-09-16T18:08:51.841Z,1.10
2022-09-16T18:11:38.645Z,1.30
2022-09-16T18:14:08.080Z,1.20
2022-09-16T18:16:35.097Z,1.38
2022-09-16T18:19:03.881Z,1.02
2022-09-16T18:21:31.497Z,1.20
2022-09-16T18:24:00.303Z,1.30
2022-09-16T18:26:27.914Z,1.45
2022-09-16T18:29:12.384Z,1.30
2022-09-16T18:31:42.555Z,1.08
2022-09-16T18:34:10.080Z,1.70
2022-09-16T18:36:39.014Z,1.48
2022-09-16T18:39:07.173Z,1.60
2022-09-16T18:41:37.265Z,1.20
2022-09-16T18:44:19.515Z,1.40
2022-09-16T18:46:47.185Z,1.60
2022-09-16T18:49:16.184Z,1.75
2022-09-16T18:51:50.476Z,1.20
2022-09-16T18:54:29.142Z,1.27
2022-09-16T18:56:59.043Z,1.53
2022-09-16T18:59:28.901Z,1.45
2022-09-16T19:02:00.351Z,1.40
2022-09-16T19:04:31.180Z,1.45
2022-09-16T19:07:05.825Z,1.73
2022-09-16T19:09:34.445Z,1.30
2022-09-16T19:12:02.195Z,1.70
2022-09-16T19:14:29.312Z,1.70
2022-09-16T19:16:56.367Z,1.58
2022-09-16T19:19:24.498Z,1.95
2022-09-16T19:21:51.558Z,1.40
2022-09-16T19:24:21.334Z,1.63
2022-09-16T19:26:50.476Z,2.25
2022-09-16T19:29:18.184Z,1.77
2022-09-16T19:31:47.647Z,1.70
2022-09-16T19:36:42.910Z,2.10
2022-09-16T19:39:11.934Z,1.92
2022-09-16T19:41:40.550Z,1.83
2022-09-16T19:44:12.827Z,1.90
2022-09-16T19:46:42.636Z,1.80
2022-09-16T19:49:15.740Z,1.80
2022-09-16T19:51:43.140Z,1.80
2022-09-16T19:54:10.254Z,1.60
2022-09-16T19:56:37.705Z,1.52
2022-09-16T19:59:04.704Z,1.40
2022-09-16T20:01:34.660Z,1.60
2022-09-16T20:04:04.059Z,1.60
2022-09-16T20:06:40.863Z,1.90
2022-09-16T20:09:11.509Z,1.77
2022-09-16T20:11:42.756Z,1.45
2022-09-16T20:14:18.941Z,2.10
2022-09-16T20:16:47.217Z,1.58
2022-09-16T20:19:16.602Z,1.75
2022-09-16T20:21:43.906Z,1.48
2022-09-16T20:24:19.756Z,1.58
2022-09-16T20:26:51.009Z,1.63
2022-09-16T20:29:19.108Z,1.60
2022-09-16T20:31:48.481Z,1.65
2022-09-16T20:36:44.399Z,1.92
2022-09-16T20:39:12.498Z,1.52
2022-09-16T20:41:40.265Z,1.40
2022-09-16T20:44:10.040Z,1.40
2022-09-16T20:46:38.756Z,2.05
2022-09-16T20:49:10.457Z,2.08
2022-09-16T20:51:37.726Z,1.70
2022-09-16T20:54:10.712Z,2.17
2022-09-16T20:56:40.590Z,1.90
2022-09-16T20:59:09.692Z,1.83
2022-09-16T21:01:38.298Z,1.55
2022-09-16T21:04:13.830Z,1.60
2022-09-16T21:06:41.310Z,1.60
2022-09-16T21:09:11.339Z,1.95
2022-09-16T21:11:42.617Z,2.03
2022-09-16T21:14:10.656Z,1.70
2022-09-16T21:16:39.017Z,1.40
2022-09-16T21:19:10.672Z,1.92
2022-09-16T21:21:40.777Z,1.45
2022-09-16T21:24:08.565Z,1.70
2022-09-16T21:26:37.698Z,2.17
2022-09-16T21:29:10.806Z,2.15
2022-09-16T21:31:39.418Z,2.03
2022-09-16T21:34:09.996Z,1.87
2022-09-16T21:36:39.106Z,1.60
2022-09-16T21:39:07.898Z,1.88
2022-09-16T21:41:35.130Z,2.00
2022-09-16T21:44:03.759Z,2.20
2022-09-16T21:46:33.598Z,2.03
2022-09-16T21:49:02.991Z,2.08
2022-09-16T21:51:37.235Z,1.98
2022-09-16T21:54:07.679Z,2.22
2022-09-16T21:56:38.530Z,1.75
2022-09-16T21:59:06.444Z,2.00
2022-09-16T22:01:33.676Z,1.90
2022-09-16T22:04:03.816Z,2.15
2022-09-16T22:06:31.461Z,1.70
2022-09-16T22:09:01.364Z,1.70
2022-09-16T22:11:30.973Z,1.98
2022-09-16T22:16:29.773Z,1.77
2022-09-16T22:18:58.405Z,1.92
2022-09-16T22:21:27.401Z,1.83
2022-09-16T22:23:54.433Z,1.83
2022-09-16T22:26:23.072Z,1.77
2022-09-16T22:28:50.794Z,2.50
2022-09-16T22:31:35.789Z,1.52
2022-09-16T22:34:03.424Z,1.75
2022-09-16T22:36:32.649Z,2.00
2022-09-16T22:39:04.082Z,1.42
2022-09-16T22:41:31.583Z,2.03
2022-09-16T22:43:58.652Z,1.85
2022-09-16T22:46:27.978Z,2.42
2022-09-16T22:48:56.740Z,2.33
2022-09-16T22:51:24.509Z,2.40
2022-09-16T22:53:52.777Z,1.70
2022-09-16T22:56:25.017Z,1.95
2022-09-16T22:58:53.927Z,1.70
2022-09-16T23:01:23.793Z,1.90
2022-09-16T23:03:56.122Z,1.80
2022-09-16T23:06:24.673Z,1.75
2022-09-16T23:08:52.485Z,2.20
2022-09-16T23:11:23.916Z,2.00
2022-09-16T23:13:52.610Z,1.80
2022-09-16T23:16:24.325Z,1.80
2022-09-16T23:18:51.589Z,2.25
2022-09-16T23:21:20.548Z,2.13
2022-09-16T23:23:50.328Z,1.98
2022-09-16T23:26:20.153Z,1.60
2022-09-16T23:28:52.102Z,2.17
2022-09-16T23:31:21.772Z,2.35
2022-09-16T23:33:49.421Z,2.20
2022-09-16T23:36:17.740Z,1.70
2022-09-16T23:38:45.838Z,2.90
2022-09-16T23:41:19.678Z,2.75
2022-09-16T23:43:48.458Z,1.77
2022-09-16T23:46:18.040Z,1.80
2022-09-16T23:51:13.973Z,1.75
2022-09-16T23:53:42.259Z,1.77
2022-09-16T23:56:12.938Z,2.50
2022-09-16T23:58:41.961Z,2.20
